createdAt,value
2018-08-13T00:02:11.152Z,95399.00
2018-08-13T00:04:43.529Z,95389.00
2018-08-13T00:07:15.861Z,95387.00
2018-08-13T00:09:47.033Z,95392.00
2018-08-13T00:12:17.429Z,95397.00
2018-08-13T00:14:52.054Z,95385.00
2018-08-13T00:17:23.101Z,95389.00
2018-08-13T00:19:54.230Z,95388.00
2018-08-13T00:22:25.530Z,95386.00
2018-08-13T00:24:55.926Z,95380.00
2018-08-13T00:27:26.598Z,95378.00
2018-08-13T00:29:57.464Z,95364.00
2018-08-13T00:32:28.561Z,95369.00
2018-08-13T00:35:01.179Z,95368.00
2018-08-13T00:37:35.180Z,95361.00
2018-08-13T00:40:10.699Z,95363.00
2018-08-13T00:42:42.630Z,95366.00
2018-08-13T00:45:14.488Z,95357.00
2018-08-13T00:47:45.338Z,95370.00
2018-08-13T00:50:17.193Z,95350.00
2018-08-13T00:52:50.735Z,95348.00
2018-08-13T00:55:23.753Z,95349.00
2018-08-13T00:57:55.234Z,95347.00
2018-08-13T01:00:26.702Z,95347.00
2018-08-13T01:02:57.368Z,95259.00
2018-08-13T01:05:28.026Z,95348.00
2018-08-13T01:08:00.716Z,95343.00
2018-08-13T01:10:33.948Z,95333.00
2018-08-13T01:13:06.525Z,95326.00
2018-08-13T01:15:40.114Z,95332.00
2018-08-13T01:18:12.922Z,95328.00
2018-08-13T01:20:50.329Z,95322.00
2018-08-13T01:23:20.651Z,95316.00
2018-08-13T01:25:51.972Z,95316.00
2018-08-13T01:28:22.430Z,95303.00
2018-08-13T01:30:53.077Z,95310.00
2018-08-13T01:33:23.435Z,95311.00
2018-08-13T01:35:53.799Z,95312.00
2018-08-13T01:38:24.201Z,95313.00
2018-08-13T01:40:55.085Z,95310.00
2018-08-13T01:43:25.365Z,95306.00
2018-08-13T01:45:55.974Z,95304.00
2018-08-13T01:48:26.244Z,95300.00
2018-08-13T01:50:56.959Z,95296.00
2018-08-13T01:53:27.457Z,95303.00
2018-08-13T01:55:57.864Z,95294.00
2018-08-13T01:58:28.241Z,95300.00
2018-08-13T02:00:58.755Z,95298.00
2018-08-13T02:03:29.107Z,95299.00
2018-08-13T02:05:59.567Z,95293.00
2018-08-13T02:08:29.881Z,95283.00
2018-08-13T02:11:00.454Z,95291.00
2018-08-13T02:13:30.767Z,95293.00
2018-08-13T02:16:01.201Z,95280.00
2018-08-13T02:18:31.553Z,95292.00
2018-08-13T02:21:02.163Z,95293.00
2018-08-13T02:23:32.506Z,95296.00
2018-08-13T02:26:03.369Z,95286.00
2018-08-13T02:28:33.802Z,95290.00
2018-08-13T02:31:04.273Z,95289.00
2018-08-13T02:33:34.625Z,95287.00
2018-08-13T02:36:05.054Z,95282.00
2018-08-13T02:38:35.481Z,95288.00
2018-08-13T02:41:06.060Z,95286.00
2018-08-13T02:43:36.377Z,95290.00
2018-08-13T02:46:06.992Z,95290.00
2018-08-13T02:48:37.263Z,95286.00
2018-08-13T02:51:07.590Z,95282.00
2018-08-13T02:53:37.911Z,95288.00
2018-08-13T02:56:08.727Z,95280.00
2018-08-13T02:58:39.070Z,95279.00
2018-08-13T03:01:09.391Z,95274.00
2018-08-13T03:03:39.769Z,95279.00
2018-08-13T03:06:11.138Z,95290.00
2018-08-13T03:08:41.482Z,95283.00
2018-08-13T03:11:11.761Z,95278.00
2018-08-13T03:13:42.120Z,95289.00
2018-08-13T03:16:12.428Z,95282.00
2018-08-13T03:18:42.747Z,95287.00
2018-08-13T03:21:13.090Z,95290.00
2018-08-13T03:23:44.447Z,95282.00
2018-08-13T03:26:14.751Z,95283.00
2018-08-13T03:28:45.082Z,95277.00
2018-08-13T03:31:16.476Z,95279.00
2018-08-13T03:33:47.425Z,95277.00
2018-08-13T03:36:17.869Z,95289.00
2018-08-13T03:38:49.317Z,95283.00
2018-08-13T03:41:19.997Z,95277.00
2018-08-13T03:43:50.569Z,95276.00
2018-08-13T03:46:20.890Z,95283.00
2018-08-13T03:48:51.308Z,95284.00
2018-08-13T03:51:21.675Z,95287.00
2018-08-13T03:53:52.320Z,95201.00
2018-08-13T03:56:22.911Z,95286.00
2018-08-13T03:58:53.358Z,95288.00
2018-08-13T04:01:23.749Z,95283.00
2018-08-13T04:03:54.505Z,95279.00
2018-08-13T04:06:24.918Z,95283.00
2018-08-13T04:08:55.273Z,95284.00
2018-08-13T04:11:25.613Z,95276.00
2018-08-13T04:13:55.925Z,95276.00
2018-08-13T04:16:26.193Z,95272.00
2018-08-13T04:18:56.509Z,95260.00
2018-08-13T04:21:27.799Z,95256.00
2018-08-13T04:23:58.135Z,95264.00
2018-08-13T04:26:28.362Z,95264.00
2018-08-13T04:28:58.686Z,95260.00
2018-08-13T04:31:29.017Z,95243.00
2018-08-13T04:33:59.390Z,95249.00
2018-08-13T04:36:29.674Z,95238.00
2018-08-13T04:38:59.999Z,95229.00
2018-08-13T04:41:30.371Z,95224.00
2018-08-13T04:44:01.118Z,95222.00
2018-08-13T04:46:31.354Z,95223.00
2018-08-13T04:49:03.795Z,95208.00
2018-08-13T04:51:34.452Z,95209.00
2018-08-13T04:54:05.494Z,95217.00
2018-08-13T04:56:35.763Z,95217.00
2018-08-13T04:59:06.087Z,95225.00
2018-08-13T05:01:36.377Z,95224.00
2018-08-13T05:04:06.798Z,95229.00
2018-08-13T05:06:37.194Z,95220.00
2018-08-13T05:09:09.692Z,95225.00
2018-08-13T05:11:40.611Z,95219.00
2018-08-13T05:14:10.934Z,95233.00
2018-08-13T05:16:41.278Z,95229.00
2018-08-13T05:19:11.666Z,95226.00
2018-08-13T05:21:41.953Z,95222.00
2018-08-13T05:24:12.323Z,95239.00
2018-08-13T05:26:42.747Z,95231.00
2018-08-13T05:29:13.078Z,95230.00
2018-08-13T05:31:43.373Z,95226.00
2018-08-13T05:34:13.952Z,95216.00
2018-08-13T05:36:44.226Z,95219.00
2018-08-13T05:39:14.570Z,95220.00
2018-08-13T05:41:44.937Z,95213.00
2018-08-13T05:44:15.318Z,95220.00
2018-08-13T05:46:45.942Z,95222.00
2018-08-13T05:49:16.300Z,95218.00
2018-08-13T05:51:47.082Z,95218.00
2018-08-13T05:54:17.739Z,95234.00
2018-08-13T05:56:48.113Z,95214.00
2018-08-13T05:59:18.649Z,95225.00
2018-08-13T06:01:49.040Z,95222.00
2018-08-13T06:04:19.425Z,95216.00
2018-08-13T06:06:49.984Z,95225.00
2018-08-13T06:09:20.348Z,95230.00
2018-08-13T06:11:50.813Z,95230.00
2018-08-13T06:14:21.386Z,95222.00
2018-08-13T06:16:51.894Z,95222.00
2018-08-13T06:19:22.250Z,95230.00
2018-08-13T06:21:52.828Z,95218.00
2018-08-13T06:24:23.402Z,95217.00
2018-08-13T06:26:53.905Z,95215.00
2018-08-13T06:29:24.385Z,95208.00
2018-08-13T06:31:55.137Z,95210.00
2018-08-13T06:34:25.506Z,95218.00
2018-08-13T06:36:56.077Z,95222.00
2018-08-13T06:39:26.494Z,95223.00
2018-08-13T06:41:56.967Z,95221.00
2018-08-13T06:44:27.386Z,95219.00
2018-08-13T06:46:57.743Z,95230.00
2018-08-13T06:49:28.151Z,95219.00
2018-08-13T06:51:58.556Z,95217.00
2018-08-13T06:54:28.925Z,95220.00
2018-08-13T06:56:59.322Z,95215.00
2018-08-13T06:59:29.746Z,95221.00
2018-08-13T07:02:00.035Z,95216.00
2018-08-13T07:04:30.945Z,95210.00
2018-08-13T07:07:01.241Z,95208.00
2018-08-13T07:09:31.741Z,95217.00
2018-08-13T07:12:02.673Z,95203.00
2018-08-13T07:14:33.224Z,95197.00
2018-08-13T07:17:03.607Z,95212.00
2018-08-13T07:19:34.166Z,95208.00
2018-08-13T07:22:07.806Z,95215.00
2018-08-13T07:24:38.119Z,95215.00
2018-08-13T07:27:08.466Z,95226.00
2018-08-13T07:29:38.785Z,95232.00
2018-08-13T07:32:09.101Z,95231.00
2018-08-13T07:34:39.397Z,95234.00
2018-08-13T07:37:10.074Z,95233.00
2018-08-13T07:39:40.417Z,95243.00
2018-08-13T07:42:10.863Z,95249.00
2018-08-13T07:44:41.158Z,95246.00
2018-08-13T07:47:11.522Z,95246.00
2018-08-13T07:49:41.827Z,95241.00
2018-08-13T07:52:12.177Z,95174.00
2018-08-13T07:54:42.518Z,95247.00
2018-08-13T07:57:13.034Z,95242.00
2018-08-13T07:59:43.295Z,95255.00
2018-08-13T08:02:13.763Z,95259.00
2018-08-13T08:04:44.213Z,95275.00
2018-08-13T08:07:14.800Z,95286.00
2018-08-13T08:09:45.097Z,95282.00
2018-08-13T08:12:15.520Z,95271.00
2018-08-13T08:14:46.352Z,95287.00
2018-08-13T08:17:17.138Z,95290.00
2018-08-13T08:19:47.725Z,95293.00
2018-08-13T08:22:18.280Z,95302.00
2018-08-13T08:24:48.962Z,95300.00
2018-08-13T08:27:19.347Z,95309.00
2018-08-13T08:29:49.723Z,95313.00
2018-08-13T08:32:20.179Z,95308.00
2018-08-13T08:34:50.980Z,95327.00
2018-08-13T08:37:21.309Z,95330.00
2018-08-13T08:39:51.706Z,95327.00
2018-08-13T08:42:22.046Z,95299.00
2018-08-13T08:44:52.382Z,95325.00
2018-08-13T08:47:23.293Z,95326.00
2018-08-13T08:49:53.864Z,95328.00
2018-08-13T08:52:24.208Z,95320.00
2018-08-13T08:54:54.757Z,95322.00
2018-08-13T08:57:25.206Z,95329.00
2018-08-13T08:59:55.669Z,95324.00
2018-08-13T09:02:26.015Z,95310.00
2018-08-13T09:04:56.638Z,95316.00
2018-08-13T09:07:27.042Z,95258.00
2018-08-13T09:09:57.541Z,95322.00
2018-08-13T09:12:27.950Z,95323.00
2018-08-13T09:14:58.358Z,95322.00
2018-08-13T09:17:45.990Z,95327.00
2018-08-13T09:20:33.209Z,95323.00
2018-08-13T09:23:20.366Z,95323.00
2018-08-13T09:26:07.517Z,95334.00
2018-08-13T09:28:54.395Z,95336.00
2018-08-13T09:31:41.745Z,95338.00
2018-08-13T09:34:33.716Z,95340.00
2018-08-13T09:37:04.034Z,95349.00
2018-08-13T09:39:34.449Z,95347.00
2018-08-13T09:42:04.973Z,95335.00
2018-08-13T09:44:35.260Z,95347.00
2018-08-13T09:47:05.652Z,95338.00
2018-08-13T09:49:37.617Z,95338.00
2018-08-13T09:52:08.085Z,95329.00
2018-08-13T09:54:38.423Z,95339.00
2018-08-13T09:57:08.834Z,95327.00
2018-08-13T09:59:39.274Z,95337.00
2018-08-13T10:02:09.724Z,95330.00
2018-08-13T10:04:40.323Z,95333.00
2018-08-13T10:07:10.696Z,95328.00
2018-08-13T10:09:41.233Z,95332.00
2018-08-13T10:12:11.806Z,95342.00
2018-08-13T10:14:42.170Z,95348.00
2018-08-13T10:17:12.507Z,95352.00
2018-08-13T10:19:42.838Z,95356.00
2018-08-13T10:22:13.285Z,95360.00
2018-08-13T10:24:43.610Z,95372.00
2018-08-13T10:27:14.112Z,95377.00
2018-08-13T10:29:45.089Z,95368.00
2018-08-13T10:32:15.403Z,95377.00
2018-08-13T10:34:46.022Z,95379.00
2018-08-13T10:37:17.009Z,95389.00
2018-08-13T10:39:47.657Z,95385.00
2018-08-13T10:42:18.723Z,95387.00
2018-08-13T10:44:49.182Z,95388.00
2018-08-13T10:47:19.649Z,95387.00
2018-08-13T10:49:50.038Z,95376.00
2018-08-13T10:52:20.669Z,95378.00
2018-08-13T10:54:51.829Z,95374.00
2018-08-13T10:57:22.645Z,95386.00
2018-08-13T10:59:53.247Z,95383.00
2018-08-13T11:02:23.694Z,95376.00
2018-08-13T11:04:54.799Z,95376.00
2018-08-13T11:07:25.439Z,95370.00
2018-08-13T11:09:56.698Z,95367.00
2018-08-13T11:12:27.461Z,95361.00
2018-08-13T11:14:57.928Z,95352.00
2018-08-13T11:17:28.294Z,95354.00
2018-08-13T11:19:58.646Z,95364.00
2018-08-13T11:22:29.098Z,95365.00
2018-08-13T11:24:59.466Z,95355.00
2018-08-13T11:27:29.782Z,95349.00
2018-08-13T11:30:00.273Z,95358.00
2018-08-13T11:32:31.040Z,95359.00
2018-08-13T11:35:01.373Z,95367.00
2018-08-13T11:37:31.700Z,95355.00
2018-08-13T11:40:02.461Z,95358.00
2018-08-13T11:42:36.435Z,95360.00
2018-08-13T11:45:07.514Z,95349.00
2018-08-13T11:47:38.979Z,95346.00
2018-08-13T11:50:20.370Z,95349.00
2018-08-13T11:52:51.606Z,95338.00
2018-08-13T11:55:22.032Z,95338.00
2018-08-13T11:57:52.470Z,95341.00
2018-08-13T12:00:22.948Z,95339.00
2018-08-13T12:02:53.983Z,95336.00
2018-08-13T12:05:24.370Z,95340.00
2018-08-13T12:07:56.009Z,95300.00
2018-08-13T12:10:27.626Z,95333.00
2018-08-13T12:12:58.796Z,95327.00
2018-08-13T12:15:29.689Z,95333.00
2018-08-13T12:18:00.954Z,95327.00
2018-08-13T12:20:31.421Z,95326.00
2018-08-13T12:23:01.990Z,95338.00
2018-08-13T12:25:32.756Z,95334.00
2018-08-13T12:28:03.130Z,95327.00
2018-08-13T12:30:33.581Z,95325.00
2018-08-13T12:33:04.524Z,95315.00
2018-08-13T12:35:35.418Z,95308.00
2018-08-13T12:38:06.827Z,95322.00
2018-08-13T12:40:37.331Z,95319.00
2018-08-13T12:43:08.656Z,95320.00
2018-08-13T12:45:39.997Z,95318.00
2018-08-13T12:48:10.939Z,95322.00
2018-08-13T12:51:45.778Z,95326.00
2018-08-13T12:54:17.699Z,95322.00
2018-08-13T12:56:49.356Z,95304.00
2018-08-13T12:59:21.194Z,95307.00
2018-08-13T13:01:52.419Z,95300.00
2018-08-13T13:04:24.135Z,95313.00
2018-08-13T13:06:56.695Z,95304.00
2018-08-13T13:09:29.025Z,94685.00
2018-08-13T13:12:01.330Z,95295.00
2018-08-13T13:14:34.734Z,95293.00
2018-08-13T13:17:06.363Z,95292.00
2018-08-13T13:19:37.960Z,95295.00
2018-08-13T13:24:32.126Z,95288.00
2018-08-13T13:27:02.446Z,95288.00
2018-08-13T13:29:32.705Z,95284.00
2018-08-13T13:32:03.497Z,95284.00
2018-08-13T13:34:33.863Z,95283.00
2018-08-13T13:37:04.322Z,95291.00
2018-08-13T13:39:34.663Z,95287.00
2018-08-13T13:42:05.046Z,95285.00
2018-08-13T13:44:35.514Z,95296.00
2018-08-13T13:47:06.094Z,95290.00
2018-08-13T13:49:36.590Z,95284.00
2018-08-13T13:52:07.086Z,95287.00
2018-08-13T13:54:37.390Z,95287.00
2018-08-13T13:57:07.862Z,95290.00
2018-08-13T13:59:38.123Z,95296.00
2018-08-13T14:02:08.476Z,95298.00
2018-08-13T14:04:38.778Z,95303.00
2018-08-13T14:07:09.330Z,95293.00
2018-08-13T14:09:39.686Z,95290.00
2018-08-13T14:12:10.047Z,95288.00
2018-08-13T14:14:40.477Z,95304.00
2018-08-13T14:17:10.976Z,95301.00
2018-08-13T14:19:41.473Z,95309.00
2018-08-13T14:22:11.801Z,95306.00
2018-08-13T14:24:42.186Z,95301.00
2018-08-13T14:27:12.590Z,95291.00
2018-08-13T14:29:43.019Z,95292.00
2018-08-13T14:32:13.399Z,95293.00
2018-08-13T14:35:47.597Z,95275.00
2018-08-13T14:38:18.131Z,95267.00
2018-08-13T14:40:48.908Z,95269.00
2018-08-13T14:43:20.024Z,95264.00
2018-08-13T14:45:50.594Z,95268.00
2018-08-13T14:48:23.046Z,95269.00
2018-08-13T14:50:56.582Z,95266.00
2018-08-13T14:53:27.950Z,95270.00
2018-08-13T14:55:59.503Z,95265.00
2018-08-13T14:58:30.982Z,95252.00
2018-08-13T15:01:03.010Z,95255.00
2018-08-13T15:03:34.283Z,95248.00
2018-08-13T15:06:05.856Z,95240.00
2018-08-13T15:08:36.746Z,95235.00
2018-08-13T15:11:08.365Z,95227.00
2018-08-13T15:13:39.177Z,95224.00
2018-08-13T15:16:10.625Z,95226.00
2018-08-13T15:18:41.043Z,95220.00
2018-08-13T15:21:12.827Z,95226.00
2018-08-13T15:23:43.167Z,95226.00
2018-08-13T15:26:13.766Z,95223.00
2018-08-13T15:28:44.136Z,95231.00
2018-08-13T15:31:14.690Z,95227.00
2018-08-13T15:33:45.105Z,95222.00
2018-08-13T15:36:15.743Z,95223.00
2018-08-13T15:38:47.113Z,95214.00
2018-08-13T15:41:17.621Z,95220.00
2018-08-13T15:43:48.835Z,95210.00
2018-08-13T15:46:19.673Z,95214.00
2018-08-13T15:48:50.851Z,95213.00
2018-08-13T15:51:21.273Z,95221.00
2018-08-13T15:53:51.944Z,95211.00
2018-08-13T15:56:22.546Z,95213.00
2018-08-13T15:58:53.442Z,95207.00
2018-08-13T16:01:23.904Z,95211.00
2018-08-13T16:03:54.752Z,95210.00
2018-08-13T16:06:26.155Z,95211.00
2018-08-13T16:08:56.746Z,95213.00
2018-08-13T16:11:27.094Z,95217.00
2018-08-13T16:13:57.495Z,95206.00
2018-08-13T16:16:27.892Z,95214.00
2018-08-13T16:18:59.114Z,95217.00
2018-08-13T16:21:29.668Z,95212.00
2018-08-13T16:24:02.292Z,95211.00
2018-08-13T16:26:33.153Z,95214.00
2018-08-13T16:32:20.967Z,95207.00
2018-08-13T16:34:51.819Z,95209.00
2018-08-13T16:37:23.874Z,95201.00
2018-08-13T16:39:54.429Z,95205.00
2018-08-13T16:42:25.021Z,95212.00
2018-08-13T16:44:55.534Z,95211.00
2018-08-13T16:47:26.209Z,95209.00
2018-08-13T16:49:56.784Z,95210.00
2018-08-13T16:52:27.333Z,95214.00
2018-08-13T16:54:57.992Z,95224.00
2018-08-13T16:57:28.718Z,95212.00
2018-08-13T16:59:59.283Z,95205.00
2018-08-13T17:02:29.678Z,95201.00
2018-08-13T17:05:00.321Z,95206.00
2018-08-13T17:07:30.679Z,95207.00
2018-08-13T17:10:01.149Z,95218.00
2018-08-13T17:12:32.461Z,95212.00
2018-08-13T17:15:10.671Z,95214.00
2018-08-13T17:17:41.467Z,95235.00
2018-08-13T17:20:15.980Z,95229.00
2018-08-13T17:22:46.476Z,95226.00
2018-08-13T17:25:17.593Z,95246.00
2018-08-13T17:27:48.062Z,95235.00
2018-08-13T17:30:22.433Z,95247.00
2018-08-13T17:32:55.139Z,95253.00
2018-08-13T17:35:31.015Z,95256.00
2018-08-13T17:38:02.284Z,95260.00
2018-08-13T17:40:33.047Z,95284.00
2018-08-13T17:43:11.083Z,95293.00
2018-08-13T17:45:41.754Z,95288.00
2018-08-13T17:48:12.966Z,95302.00
2018-08-13T17:50:45.008Z,95291.00
2018-08-13T17:53:16.670Z,95271.00
2018-08-13T17:55:47.803Z,95279.00
2018-08-13T17:58:18.177Z,95301.00
2018-08-13T18:00:51.322Z,95305.00
2018-08-13T18:03:21.933Z,95293.00
2018-08-13T18:05:53.069Z,95289.00
2018-08-13T18:08:23.539Z,95274.00
2018-08-13T18:10:55.841Z,95269.00
2018-08-13T18:13:26.173Z,95280.00
2018-08-13T18:15:56.703Z,95267.00
2018-08-13T18:18:27.165Z,95270.00
2018-08-13T18:21:15.697Z,95265.00
2018-08-13T18:23:46.124Z,95256.00
2018-08-13T18:26:16.973Z,95271.00
2018-08-13T18:28:47.354Z,95277.00
2018-08-13T18:31:17.982Z,95280.00
2018-08-13T18:33:48.744Z,95281.00
2018-08-13T18:36:19.256Z,95273.00
2018-08-13T18:38:49.821Z,95274.00
2018-08-13T18:41:20.342Z,95274.00
2018-08-13T18:43:50.722Z,95272.00
2018-08-13T18:46:21.142Z,95285.00
2018-08-13T18:48:52.262Z,95302.00
2018-08-13T18:51:22.839Z,95295.00
2018-08-13T18:53:53.282Z,95301.00
2018-08-13T18:56:23.765Z,95292.00
2018-08-13T18:58:54.389Z,95299.00
2018-08-13T19:01:25.007Z,95307.00
2018-08-13T19:03:55.510Z,95298.00
2018-08-13T19:06:26.416Z,95304.00
2018-08-13T19:08:56.843Z,95318.00
2018-08-13T19:11:33.744Z,95306.00
2018-08-13T19:14:06.198Z,95320.00
2018-08-13T19:16:36.710Z,95322.00
2018-08-13T19:19:07.390Z,95319.00
2018-08-13T19:21:38.389Z,95322.00
2018-08-13T19:24:09.462Z,95324.00
2018-08-13T19:26:39.936Z,95326.00
2018-08-13T19:29:10.539Z,95319.00
2018-08-13T19:31:41.377Z,95336.00
2018-08-13T19:34:12.006Z,95319.00
2018-08-13T19:36:42.520Z,95311.00
2018-08-13T19:39:14.147Z,95318.00
2018-08-13T19:41:44.737Z,95331.00
2018-08-13T19:44:19.476Z,95320.00
2018-08-13T19:46:50.538Z,95323.00
2018-08-13T19:49:21.314Z,95322.00
2018-08-13T19:51:52.085Z,95315.00
2018-08-13T19:54:22.430Z,95325.00
2018-08-13T19:56:54.024Z,95323.00
2018-08-13T19:59:24.747Z,95329.00
2018-08-13T20:01:55.854Z,95335.00
2018-08-13T20:04:26.626Z,95338.00
2018-08-13T20:06:57.209Z,95338.00
2018-08-13T20:09:27.982Z,95330.00
2018-08-13T20:11:58.631Z,95332.00
2018-08-13T20:14:28.870Z,95324.00
2018-08-13T20:16:59.234Z,95335.00
2018-08-13T20:19:30.010Z,95340.00
2018-08-13T20:22:00.462Z,95344.00
2018-08-13T20:24:31.477Z,95354.00
2018-08-13T20:27:02.065Z,95360.00
2018-08-13T20:29:32.752Z,95344.00
2018-08-13T20:32:04.513Z,95345.00
2018-08-13T20:34:35.804Z,95347.00
2018-08-13T20:37:06.470Z,95345.00
2018-08-13T20:39:37.117Z,95348.00
2018-08-13T20:42:07.795Z,95334.00
2018-08-13T20:44:38.354Z,95333.00
2018-08-13T20:47:09.124Z,95334.00
2018-08-13T20:49:39.889Z,95344.00
2018-08-13T20:52:10.363Z,95336.00
2018-08-13T20:54:40.856Z,95346.00
2018-08-13T20:57:11.246Z,95342.00
2018-08-13T20:59:42.574Z,95368.00
2018-08-13T21:02:13.021Z,95354.00
2018-08-13T21:04:43.422Z,95345.00
2018-08-13T21:07:13.788Z,95350.00
2018-08-13T21:09:44.188Z,95339.00
2018-08-13T21:12:14.548Z,95349.00
2018-08-13T21:14:44.946Z,95358.00
2018-08-13T21:17:15.696Z,95360.00
2018-08-13T21:19:46.042Z,95360.00
2018-08-13T21:22:16.362Z,95357.00
2018-08-13T21:24:46.995Z,95362.00
2018-08-13T21:27:17.418Z,95373.00
2018-08-13T21:29:47.846Z,95374.00
2018-08-13T21:32:18.431Z,95365.00
2018-08-13T21:34:48.851Z,95373.00
2018-08-13T21:37:19.213Z,95368.00
2018-08-13T21:39:50.117Z,95376.00
2018-08-13T21:42:20.630Z,95379.00
2018-08-13T21:44:51.159Z,95383.00
2018-08-13T21:47:21.595Z,95378.00
2018-08-13T21:49:52.309Z,95376.00
2018-08-13T21:52:22.721Z,95380.00
2018-08-13T21:54:53.187Z,95382.00
2018-08-13T21:57:24.918Z,95375.00
2018-08-13T21:59:55.948Z,95386.00
2018-08-13T22:02:26.233Z,95384.00
2018-08-13T22:04:56.558Z,95389.00
2018-08-13T22:07:26.900Z,95367.00
2018-08-13T22:09:57.175Z,95372.00
2018-08-13T22:12:27.449Z,95382.00
2018-08-13T22:14:58.812Z,95393.00
2018-08-13T22:17:29.104Z,95391.00
2018-08-13T22:20:00.648Z,95391.00
2018-08-13T22:22:31.463Z,95391.00
2018-08-13T22:25:04.015Z,95395.00
2018-08-13T22:27:34.587Z,95403.00
2018-08-13T22:30:07.403Z,95394.00
2018-08-13T22:32:37.833Z,95390.00
2018-08-13T22:35:09.971Z,95391.00
2018-08-13T22:37:41.678Z,95392.00
2018-08-13T22:40:15.924Z,95398.00
2018-08-13T22:42:46.887Z,95403.00
2018-08-13T22:45:25.038Z,95400.00
2018-08-13T22:47:56.609Z,95392.00
2018-08-13T22:50:27.746Z,95394.00
2018-08-13T22:52:59.258Z,95390.00
2018-08-13T22:55:30.751Z,95397.00
2018-08-13T22:58:02.210Z,95402.00
2018-08-13T23:00:33.624Z,95403.00
2018-08-13T23:03:04.897Z,95405.00
2018-08-13T23:05:36.527Z,95410.00
2018-08-13T23:08:08.701Z,95408.00
2018-08-13T23:10:41.163Z,95408.00
2018-08-13T23:13:17.622Z,95401.00
2018-08-13T23:15:48.911Z,95411.00
2018-08-13T23:18:20.089Z,95412.00
2018-08-13T23:20:51.065Z,95408.00
2018-08-13T23:23:22.274Z,95411.00
2018-08-13T23:25:53.772Z,95413.00
2018-08-13T23:28:27.145Z,95423.00
2018-08-13T23:30:58.261Z,95424.00
2018-08-13T23:33:28.916Z,95421.00
2018-08-13T23:36:00.100Z,95411.00
2018-08-13T23:38:31.230Z,95412.00
2018-08-13T23:41:03.100Z,95416.00
2018-08-13T23:43:34.792Z,95421.00
2018-08-13T23:46:05.090Z,95405.00
2018-08-13T23:48:35.656Z,95412.00
2018-08-13T23:51:07.271Z,95407.00
2018-08-13T23:53:37.535Z,95414.00
2018-08-13T23:56:08.868Z,95406.00
2018-08-13T23:58:39.197Z,95417.00
